Time;durP1;ratioP1;P1;durP2;ratioP2;P2;SDS_P1;SDS_P2;PMS_P1;PMS_P2;Temp;Humidity;BMP_temperature;BMP_pressure;BME280_temperature;BME280_humidity;BME280_pressure;Samples;Min_cycle;Max_cycle;Signal;HPM_P1;HPM_P2
2021/09/26 00:02:19;;;;;;;28.20;18.13;;;;;;;;;;5096464;28;20526;-72
2021/09/26 00:04:46;;;;;;;24.17;17.90;;;;;;;;;;5096079;28;20443;-72
2021/09/26 00:07:13;;;;;;;23.83;17.67;;;;;;;;;;5096005;28;20447;-73
2021/09/26 00:09:41;;;;;;;25.70;17.87;;;;;;;;;;5096266;28;20449;-73
2021/09/26 00:12:10;;;;;;;23.63;18.20;;;;;;;;;;5096327;28;20448;-73
2021/09/26 00:14:37;;;;;;;22.17;16.30;;;;;;;;;;5096182;28;20447;-73
2021/09/26 00:17:04;;;;;;;29.07;19.77;;;;;;;;;;5096170;28;20849;-73
2021/09/26 00:19:31;;;;;;;26.30;20.17;;;;;;;;;;5095088;28;20558;-73
2021/09/26 00:21:59;;;;;;;30.37;21.23;;;;;;;;;;5096213;28;20446;-73
2021/09/26 00:24:26;;;;;;;25.27;19.33;;;;;;;;;;5095984;28;20437;-73
2021/09/26 00:26:53;;;;;;;23.30;18.77;;;;;;;;;;5095583;28;20437;-73
2021/09/26 00:29:21;;;;;;;27.37;18.73;;;;;;;;;;5095619;28;20792;-73
2021/09/26 00:31:49;;;;;;;29.63;18.73;;;;;;;;;;5095825;28;20536;-73
2021/09/26 00:34:16;;;;;;;22.40;18.53;;;;;;;;;;5095522;28;20441;-74
2021/09/26 00:36:43;;;;;;;30.43;20.20;;;;;;;;;;5095783;28;20516;-73
2021/09/26 00:39:10;;;;;;;23.60;17.47;;;;;;;;;;5096217;28;20480;-72
2021/09/26 00:41:37;;;;;;;28.63;18.77;;;;;;;;;;5095735;28;20471;-73
2021/09/26 00:44:05;;;;;;;21.73;18.27;;;;;;;;;;5095389;28;20448;-73
2021/09/26 00:46:33;;;;;;;24.23;19.40;;;;;;;;;;5095634;28;20441;-73
2021/09/26 00:49:01;;;;;;;26.77;19.93;;;;;;;;;;5095152;28;20450;-73
2021/09/26 00:51:28;;;;;;;25.27;18.90;;;;;;;;;;5095108;28;20455;-73
2021/09/26 00:53:55;;;;;;;29.00;20.67;;;;;;;;;;5095399;28;20520;-73
2021/09/26 00:56:22;;;;;;;24.83;18.90;;;;;;;;;;5095386;28;20437;-73
2021/09/26 00:58:50;;;;;;;28.43;20.63;;;;;;;;;;5095410;28;20476;-73
2021/09/26 01:01:17;;;;;;;23.37;18.27;;;;;;;;;;5095336;28;20444;-73
2021/09/26 01:03:45;;;;;;;27.90;20.20;;;;;;;;;;5094930;28;20541;-73
2021/09/26 01:06:17;;;;;;;28.70;19.00;;;;;;;;;;5095338;28;20449;-73
2021/09/26 01:08:52;;;;;;;25.53;18.93;;;;;;;;;;5094902;28;20429;-73
2021/09/26 01:11:23;;;;;;;27.63;20.80;;;;;;;;;;5095568;28;20789;-74
2021/09/26 01:13:53;;;;;;;28.70;21.07;;;;;;;;;;5095104;28;20435;-72
2021/09/26 01:16:28;;;;;;;26.87;20.73;;;;;;;;;;5094645;28;21012;-73
2021/09/26 01:19:02;;;;;;;28.20;20.13;;;;;;;;;;5094919;28;20465;-73
2021/09/26 01:21:33;;;;;;;29.40;21.17;;;;;;;;;;5094654;28;20433;-73
2021/09/26 01:24:18;;;;;;;27.43;20.37;;;;;;;;;;5094988;28;20517;-72
2021/09/26 01:26:47;;;;;;;24.70;18.00;;;;;;;;;;5095295;28;20484;-73
2021/09/26 01:29:28;;;;;;;30.67;19.43;;;;;;;;;;5094322;28;20473;-73
2021/09/26 01:31:57;;;;;;;30.00;19.50;;;;;;;;;;5094709;28;20516;-73
2021/09/26 01:34:29;;;;;;;24.00;19.57;;;;;;;;;;5095239;28;20440;-73
2021/09/26 01:36:57;;;;;;;29.00;20.17;;;;;;;;;;5094899;28;20435;-73
2021/09/26 01:39:28;;;;;;;34.13;21.00;;;;;;;;;;5094476;28;20490;-73
2021/09/26 01:42:00;;;;;;;26.73;19.40;;;;;;;;;;5094732;28;20447;-73
2021/09/26 01:44:30;;;;;;;28.40;19.47;;;;;;;;;;5094580;28;20433;-73
2021/09/26 01:46:59;;;;;;;25.77;19.30;;;;;;;;;;5094936;28;20444;-73
2021/09/26 01:49:28;;;;;;;24.57;21.00;;;;;;;;;;5094529;28;20456;-73
2021/09/26 01:51:56;;;;;;;27.90;20.07;;;;;;;;;;5094565;28;20519;-74
2021/09/26 01:54:23;;;;;;;28.27;19.23;;;;;;;;;;5094316;28;20449;-73
2021/09/26 01:56:52;;;;;;;31.43;20.83;;;;;;;;;;5094376;28;20437;-73
2021/09/26 01:59:21;;;;;;;29.33;21.17;;;;;;;;;;5093707;28;20472;-73
2021/09/26 02:01:49;;;;;;;36.27;21.97;;;;;;;;;;5094127;28;20547;-73
2021/09/26 02:04:20;;;;;;;35.30;23.53;;;;;;;;;;5093803;28;20440;-73
2021/09/26 02:06:47;;;;;;;29.43;21.47;;;;;;;;;;5094182;28;20438;-73
2021/09/26 02:09:15;;;;;;;27.60;20.70;;;;;;;;;;5094644;28;20977;-73
2021/09/26 02:11:43;;;;;;;31.83;21.70;;;;;;;;;;5094014;28;20441;-74
2021/09/26 02:14:12;;;;;;;27.73;20.13;;;;;;;;;;5093975;28;20448;-75
2021/09/26 02:16:40;;;;;;;24.40;17.77;;;;;;;;;;5093914;28;20442;-74
2021/09/26 02:19:08;;;;;;;24.60;19.93;;;;;;;;;;5093855;28;20488;-73
2021/09/26 02:21:37;;;;;;;24.93;18.93;;;;;;;;;;5093562;28;21027;-72
2021/09/26 02:24:05;;;;;;;26.73;19.63;;;;;;;;;;5093938;28;20854;-73
2021/09/26 02:26:34;;;;;;;33.80;22.70;;;;;;;;;;5094420;28;20439;-72
2021/09/26 02:29:01;;;;;;;29.30;21.17;;;;;;;;;;5093169;28;20479;-73
2021/09/26 02:31:29;;;;;;;25.13;20.10;;;;;;;;;;5093748;28;20471;-73
2021/09/26 02:33:56;;;;;;;31.40;21.53;;;;;;;;;;5093764;28;20440;-73
2021/09/26 02:36:23;;;;;;;32.13;21.83;;;;;;;;;;5093679;28;20442;-73
2021/09/26 02:38:51;;;;;;;32.27;21.10;;;;;;;;;;5093337;28;20542;-73
2021/09/26 02:41:24;;;;;;;30.10;21.80;;;;;;;;;;5093112;28;20486;-73
2021/09/26 02:43:56;;;;;;;30.60;20.00;;;;;;;;;;5093736;28;20428;-74
2021/09/26 02:46:25;;;;;;;26.77;20.50;;;;;;;;;;5094217;28;20520;-73
2021/09/26 02:48:53;;;;;;;29.83;21.80;;;;;;;;;;5093977;28;20448;-73
2021/09/26 02:51:21;;;;;;;25.43;18.13;;;;;;;;;;5093521;28;20444;-73
2021/09/26 02:53:48;;;;;;;29.47;20.00;;;;;;;;;;5093847;28;20444;-73
2021/09/26 02:56:17;;;;;;;24.57;18.67;;;;;;;;;;5093517;28;20926;-72
2021/09/26 02:58:44;;;;;;;31.23;19.40;;;;;;;;;;5093320;28;20447;-72
2021/09/26 03:01:11;;;;;;;28.47;18.33;;;;;;;;;;5093109;28;20445;-73
2021/09/26 03:03:38;;;;;;;28.70;19.63;;;;;;;;;;5093499;28;20443;-73
2021/09/26 03:06:06;;;;;;;29.40;20.10;;;;;;;;;;5093394;28;20756;-73
2021/09/26 03:08:33;;;;;;;28.37;18.83;;;;;;;;;;5093864;28;20436;-73
2021/09/26 03:11:02;;;;;;;36.70;22.30;;;;;;;;;;5093471;28;20440;-73
2021/09/26 03:13:30;;;;;;;31.03;20.70;;;;;;;;;;5093034;28;20534;-72
2021/09/26 03:15:58;;;;;;;25.53;19.40;;;;;;;;;;5093340;28;20473;-73
2021/09/26 03:18:25;;;;;;;23.00;19.67;;;;;;;;;;5093292;28;20794;-73
2021/09/26 03:20:52;;;;;;;28.13;18.87;;;;;;;;;;5093219;28;20829;-73
2021/09/26 03:23:20;;;;;;;23.33;18.37;;;;;;;;;;5093300;28;20442;-73
2021/09/26 03:25:47;;;;;;;22.90;16.67;;;;;;;;;;5093262;28;20441;-73
2021/09/26 03:28:14;;;;;;;24.43;19.20;;;;;;;;;;5092940;28;20522;-73
2021/09/26 03:30:42;;;;;;;27.57;19.53;;;;;;;;;;5093516;28;20448;-73
2021/09/26 03:33:10;;;;;;;26.50;20.57;;;;;;;;;;5093099;28;20440;-74
2021/09/26 03:35:37;;;;;;;30.67;20.10;;;;;;;;;;5092814;28;20441;-73
2021/09/26 03:38:05;;;;;;;26.90;18.73;;;;;;;;;;5093707;28;20501;-73
2021/09/26 03:40:32;;;;;;;25.67;19.30;;;;;;;;;;5093094;28;20471;-73
2021/09/26 03:42:59;;;;;;;26.00;19.20;;;;;;;;;;5092779;28;20532;-73
2021/09/26 03:45:27;;;;;;;25.00;18.47;;;;;;;;;;5093005;28;20440;-73
2021/09/26 03:47:55;;;;;;;26.57;20.77;;;;;;;;;;5092998;28;20441;-73
2021/09/26 03:50:22;;;;;;;26.30;20.60;;;;;;;;;;5092952;28;20447;-72
2021/09/26 03:52:50;;;;;;;31.50;21.00;;;;;;;;;;5093027;28;20780;-73
2021/09/26 03:55:17;;;;;;;29.23;21.37;;;;;;;;;;5096561;28;20441;-73
2021/09/26 03:57:44;;;;;;;33.63;22.03;;;;;;;;;;5096577;28;20434;-73
2021/09/26 04:00:13;;;;;;;26.90;20.37;;;;;;;;;;5095995;28;20487;-73
2021/09/26 04:02:40;;;;;;;27.73;20.20;;;;;;;;;;5096375;28;20457;-73
2021/09/26 04:05:09;;;;;;;29.27;21.33;;;;;;;;;;5097146;28;20439;-73
2021/09/26 04:07:36;;;;;;;26.30;18.53;;;;;;;;;;5096465;28;20440;-74
2021/09/26 04:10:04;;;;;;;29.03;20.93;;;;;;;;;;5096541;28;20473;-72
2021/09/26 04:12:32;;;;;;;26.73;20.23;;;;;;;;;;5095912;28;20445;-73
2021/09/26 04:14:59;;;;;;;27.77;21.57;;;;;;;;;;5096243;28;20436;-73
2021/09/26 04:17:26;;;;;;;25.27;19.73;;;;;;;;;;5096151;28;20534;-73
2021/09/26 04:19:53;;;;;;;27.90;19.20;;;;;;;;;;5095703;28;20473;-73
2021/09/26 04:22:22;;;;;;;30.20;21.37;;;;;;;;;;5096024;28;20934;-73
2021/09/26 04:24:49;;;;;;;25.77;20.30;;;;;;;;;;5096499;28;20441;-73
2021/09/26 04:27:16;;;;;;;26.40;20.47;;;;;;;;;;5095944;28;20440;-73
2021/09/26 04:29:44;;;;;;;27.00;20.27;;;;;;;;;;5095991;28;21052;-73
2021/09/26 04:32:11;;;;;;;22.20;18.13;;;;;;;;;;5096061;28;20437;-72
2021/09/26 04:34:38;;;;;;;27.03;20.90;;;;;;;;;;5095535;28;21016;-73
2021/09/26 04:37:06;;;;;;;27.77;18.83;;;;;;;;;;5096008;28;20432;-72
2021/09/26 04:39:34;;;;;;;23.60;18.80;;;;;;;;;;5095451;28;21104;-74
2021/09/26 04:42:01;;;;;;;21.00;18.60;;;;;;;;;;5095312;28;20436;-74
2021/09/26 04:44:29;;;;;;;19.50;17.07;;;;;;;;;;5095342;28;20442;-74
2021/09/26 04:46:56;;;;;;;23.63;16.13;;;;;;;;;;5095302;28;20514;-73
2021/09/26 04:49:28;;;;;;;20.70;16.23;;;;;;;;;;5095542;28;20875;-72
2021/09/26 04:51:55;;;;;;;22.33;15.93;;;;;;;;;;5095254;28;20502;-72
2021/09/26 04:54:22;;;;;;;21.33;15.83;;;;;;;;;;5094624;28;20935;-72
2021/09/26 04:56:51;;;;;;;21.07;16.17;;;;;;;;;;5094593;28;20991;-72
2021/09/26 04:59:18;;;;;;;20.00;16.40;;;;;;;;;;5094818;28;20596;-71
2021/09/26 05:01:45;;;;;;;21.40;16.13;;;;;;;;;;5094692;28;20437;-73
2021/09/26 05:04:13;;;;;;;20.63;16.77;;;;;;;;;;5094253;28;20539;-72
2021/09/26 05:06:40;;;;;;;24.60;16.50;;;;;;;;;;5094563;28;20523;-72
2021/09/26 05:09:07;;;;;;;19.47;15.73;;;;;;;;;;5094551;28;20530;-73
2021/09/26 05:11:34;;;;;;;19.20;14.90;;;;;;;;;;5094270;28;20454;-72
2021/09/26 05:14:03;;;;;;;18.33;15.47;;;;;;;;;;5094638;28;20444;-72
2021/09/26 05:16:30;;;;;;;20.70;15.23;;;;;;;;;;5094224;28;20432;-73
2021/09/26 05:18:57;;;;;;;17.50;15.10;;;;;;;;;;5094010;28;20452;-72
2021/09/26 05:21:24;;;;;;;21.53;16.73;;;;;;;;;;5094382;28;20479;-72
2021/09/26 05:23:52;;;;;;;19.73;16.67;;;;;;;;;;5094433;28;20532;-73
2021/09/26 05:26:19;;;;;;;19.30;17.33;;;;;;;;;;5093784;28;20540;-71
2021/09/26 05:28:46;;;;;;;21.60;17.13;;;;;;;;;;5094142;28;21004;-72
2021/09/26 05:31:14;;;;;;;20.00;16.10;;;;;;;;;;5094345;28;20430;-73
2021/09/26 05:33:42;;;;;;;21.40;16.83;;;;;;;;;;5093865;28;20454;-72
2021/09/26 05:36:09;;;;;;;18.93;16.00;;;;;;;;;;5093888;28;20444;-72
2021/09/26 05:38:36;;;;;;;19.63;16.20;;;;;;;;;;5094143;28;20537;-74
2021/09/26 05:41:03;;;;;;;20.90;17.87;;;;;;;;;;5093658;28;21004;-72
2021/09/26 05:43:31;;;;;;;20.40;15.30;;;;;;;;;;5093969;28;20447;-72
2021/09/26 05:45:58;;;;;;;23.37;16.57;;;;;;;;;;5094148;28;20452;-72
2021/09/26 05:48:27;;;;;;;21.57;16.30;;;;;;;;;;5093619;28;20533;-72
2021/09/26 05:50:54;;;;;;;17.83;16.03;;;;;;;;;;5093463;28;20448;-71
2021/09/26 05:53:21;;;;;;;21.57;17.03;;;;;;;;;;5093761;28;20447;-72
2021/09/26 05:55:49;;;;;;;18.30;14.90;;;;;;;;;;5094068;28;20436;-71
2021/09/26 05:58:16;;;;;;;22.97;16.73;;;;;;;;;;5094045;28;20540;-71
2021/09/26 06:00:43;;;;;;;21.60;16.93;;;;;;;;;;5093525;28;20479;-71
2021/09/26 06:03:13;;;;;;;20.60;17.17;;;;;;;;;;5093547;28;20443;-71
2021/09/26 06:05:42;;;;;;;21.33;16.93;;;;;;;;;;5094240;28;20487;-71
2021/09/26 06:08:10;;;;;;;21.77;16.93;;;;;;;;;;5093926;28;20454;-71
2021/09/26 06:10:38;;;;;;;19.17;16.67;;;;;;;;;;5093626;28;20938;-72
2021/09/26 06:13:05;;;;;;;20.53;16.57;;;;;;;;;;5093626;28;20456;-71
2021/09/26 06:15:33;;;;;;;21.80;15.57;;;;;;;;;;5093533;28;20534;-70
2021/09/26 06:18:00;;;;;;;18.30;16.10;;;;;;;;;;5093506;28;20497;-72
2021/09/26 06:20:28;;;;;;;22.77;18.20;;;;;;;;;;5093488;28;20569;-73
2021/09/26 06:22:56;;;;;;;18.33;16.43;;;;;;;;;;5093351;28;20442;-74
2021/09/26 06:25:26;;;;;;;20.63;16.33;;;;;;;;;;5093448;28;20454;-73
2021/09/26 06:27:53;;;;;;;20.73;16.00;;;;;;;;;;5093766;28;20480;-73
2021/09/26 06:30:20;;;;;;;19.90;15.80;;;;;;;;;;5093918;28;20478;-72
2021/09/26 06:32:48;;;;;;;17.33;15.53;;;;;;;;;;5093233;28;20448;-72
2021/09/26 06:35:15;;;;;;;16.67;14.90;;;;;;;;;;5093587;28;20786;-72
2021/09/26 06:37:42;;;;;;;18.30;15.70;;;;;;;;;;5093715;28;20440;-72
2021/09/26 06:40:11;;;;;;;21.33;15.57;;;;;;;;;;5093343;28;20491;-71
2021/09/26 06:42:39;;;;;;;19.37;14.70;;;;;;;;;;5093625;28;20935;-71
2021/09/26 06:45:07;;;;;;;18.07;15.33;;;;;;;;;;5093464;28;20445;-71
2021/09/26 06:47:35;;;;;;;18.23;15.47;;;;;;;;;;5093583;28;20533;-72
2021/09/26 06:50:02;;;;;;;16.67;14.10;;;;;;;;;;5093305;28;20442;-71
2021/09/26 06:52:29;;;;;;;17.53;13.90;;;;;;;;;;5093622;28;20793;-71
2021/09/26 06:54:56;;;;;;;17.60;14.00;;;;;;;;;;5094054;28;20530;-71
2021/09/26 06:57:25;;;;;;;15.70;14.10;;;;;;;;;;5094136;28;20444;-72
2021/09/26 06:59:53;;;;;;;13.77;12.33;;;;;;;;;;5094164;28;20447;-71
2021/09/26 07:02:22;;;;;;;16.43;14.13;;;;;;;;;;5093153;28;20999;-71
2021/09/26 07:04:50;;;;;;;14.97;13.20;;;;;;;;;;5093626;28;20451;-71
2021/09/26 07:07:19;;;;;;;15.40;13.10;;;;;;;;;;5093124;28;20452;-71
2021/09/26 07:09:49;;;;;;;14.80;12.80;;;;;;;;;;5093064;28;20949;-71
2021/09/26 07:12:16;;;;;;;16.43;13.13;;;;;;;;;;5093088;28;20453;-71
2021/09/26 07:14:44;;;;;;;13.20;11.87;;;;;;;;;;5093406;28;20523;-70
2021/09/26 07:17:12;;;;;;;13.83;12.17;;;;;;;;;;5093018;28;20441;-71
2021/09/26 07:19:39;;;;;;;13.20;11.90;;;;;;;;;;5093313;28;20476;-72
2021/09/26 07:22:06;;;;;;;13.77;12.10;;;;;;;;;;5093294;28;20484;-70
2021/09/26 07:24:33;;;;;;;13.00;11.10;;;;;;;;;;5092934;28;20449;-78
2021/09/26 07:27:01;;;;;;;13.73;12.33;;;;;;;;;;5092476;28;20527;-77
2021/09/26 07:29:28;;;;;;;17.93;11.97;;;;;;;;;;5094784;28;20993;-76
2021/09/26 07:31:57;;;;;;;13.37;11.97;;;;;;;;;;5096513;28;20489;-77
2021/09/26 07:34:24;;;;;;;13.50;12.10;;;;;;;;;;5096389;28;20527;-77
2021/09/26 07:36:51;;;;;;;12.07;10.90;;;;;;;;;;5096959;28;20441;-77
2021/09/26 07:39:18;;;;;;;15.07;11.77;;;;;;;;;;5097387;28;20447;-77
2021/09/26 07:41:45;;;;;;;11.40;10.20;;;;;;;;;;5096419;28;20482;-77
2021/09/26 07:44:12;;;;;;;13.13;10.37;;;;;;;;;;5096967;28;20790;-77
2021/09/26 07:46:43;;;;;;;12.57;9.30;;;;;;;;;;5096922;28;20441;-77
2021/09/26 07:49:12;;;;;;;12.10;9.63;;;;;;;;;;5096828;28;20432;-76
2021/09/26 07:51:39;;;;;;;11.70;10.50;;;;;;;;;;5096356;28;21008;-78
2021/09/26 07:54:06;;;;;;;10.27;9.27;;;;;;;;;;5096532;28;20454;-77
2021/09/26 07:56:34;;;;;;;11.27;10.17;;;;;;;;;;5096594;28;20472;-77
2021/09/26 07:59:01;;;;;;;10.87;9.70;;;;;;;;;;5095942;28;20930;-77
2021/09/26 08:01:28;;;;;;;11.60;10.50;;;;;;;;;;5096439;28;20480;-76
2021/09/26 08:03:55;;;;;;;10.83;9.77;;;;;;;;;;5096576;28;20440;-76
2021/09/26 08:06:24;;;;;;;11.17;10.10;;;;;;;;;;5096352;28;20445;-76
2021/09/26 08:08:51;;;;;;;11.07;9.97;;;;;;;;;;5095932;28;20968;-77
2021/09/26 08:11:18;;;;;;;12.30;11.03;;;;;;;;;;5095883;28;20449;-77
2021/09/26 08:13:46;;;;;;;14.90;10.30;;;;;;;;;;5096239;28;20449;-77
2021/09/26 08:16:14;;;;;;;11.77;10.00;;;;;;;;;;5096229;28;20441;-76
2021/09/26 08:18:41;;;;;;;13.80;11.50;;;;;;;;;;5095694;28;20487;-75
2021/09/26 08:21:13;;;;;;;16.73;11.20;;;;;;;;;;5096448;28;20593;-77
2021/09/26 08:23:42;;;;;;;12.90;11.60;;;;;;;;;;5095673;28;20616;-75
2021/09/26 08:26:09;;;;;;;12.17;10.57;;;;;;;;;;5095896;28;20464;-77
2021/09/26 08:28:36;;;;;;;12.50;10.27;;;;;;;;;;5095306;28;20573;-76
2021/09/26 08:31:03;;;;;;;11.27;10.20;;;;;;;;;;5094515;28;20486;-73
2021/09/26 08:33:31;;;;;;;11.83;10.30;;;;;;;;;;5094608;28;20441;-73
2021/09/26 08:35:58;;;;;;;11.40;10.20;;;;;;;;;;5094162;28;20439;-75
2021/09/26 08:38:25;;;;;;;12.10;10.77;;;;;;;;;;5095086;28;20429;-75
2021/09/26 08:40:54;;;;;;;12.77;11.07;;;;;;;;;;5094850;28;20470;-76
2021/09/26 08:43:22;;;;;;;11.87;10.63;;;;;;;;;;5095996;28;20433;-75
2021/09/26 08:45:49;;;;;;;11.10;10.00;;;;;;;;;;5096369;28;20429;-74
2021/09/26 08:48:16;;;;;;;12.10;10.20;;;;;;;;;;5096308;28;20461;-74
2021/09/26 08:50:44;;;;;;;13.17;9.90;;;;;;;;;;5095458;28;20528;-76
2021/09/26 08:53:11;;;;;;;11.80;10.00;;;;;;;;;;5095454;28;20446;-76
2021/09/26 08:55:38;;;;;;;12.20;10.10;;;;;;;;;;5095601;28;20966;-75
2021/09/26 08:58:07;;;;;;;11.30;10.20;;;;;;;;;;5096033;28;20431;-76
2021/09/26 09:00:36;;;;;;;11.33;10.17;;;;;;;;;;5095647;28;20759;-75
2021/09/26 09:03:03;;;;;;;11.03;10.03;;;;;;;;;;5094897;28;20438;-76
2021/09/26 09:05:32;;;;;;;11.77;10.53;;;;;;;;;;5095478;28;20442;-77
2021/09/26 09:08:10;;;;;;;14.10;10.20;;;;;;;;;;5095605;28;20436;-76
2021/09/26 09:10:41;;;;;;;10.80;9.80;;;;;;;;;;5095170;28;20513;-75
2021/09/26 09:13:11;;;;;;;10.10;9.17;;;;;;;;;;5094266;28;20450;-74
2021/09/26 09:15:38;;;;;;;11.70;10.50;;;;;;;;;;5094020;28;20426;-73
2021/09/26 09:18:06;;;;;;;11.43;9.43;;;;;;;;;;5094079;28;20437;-74
2021/09/26 09:20:34;;;;;;;11.03;10.00;;;;;;;;;;5094022;28;20438;-75
2021/09/26 09:23:09;;;;;;;10.70;9.70;;;;;;;;;;5081003;28;20449;-71
2021/09/26 09:25:38;;;;;;;11.10;9.90;;;;;;;;;;5076672;28;20427;-73
2021/09/26 09:28:06;;;;;;;11.37;10.17;;;;;;;;;;5086525;28;20445;-71
2021/09/26 09:30:35;;;;;;;12.33;10.27;;;;;;;;;;5084529;28;20450;-75
2021/09/26 09:33:03;;;;;;;13.27;10.30;;;;;;;;;;5085616;28;20445;-71
2021/09/26 09:35:36;;;;;;;11.03;10.00;;;;;;;;;;5087475;28;21598;-74
2021/09/26 09:38:03;;;;;;;12.00;10.03;;;;;;;;;;5087549;28;20456;-70
2021/09/26 09:40:31;;;;;;;11.43;10.27;;;;;;;;;;5088949;28;20444;-73
2021/09/26 09:42:58;;;;;;;11.23;10.03;;;;;;;;;;5087257;28;20476;-70
2021/09/26 09:45:26;;;;;;;11.17;10.07;;;;;;;;;;5089994;28;20448;-73
2021/09/26 09:48:08;;;;;;;10.23;9.23;;;;;;;;;;5093435;28;20486;-74
2021/09/26 09:50:48;;;;;;;12.37;11.20;;;;;;;;;;5090996;28;20426;-74
2021/09/26 09:53:36;;;;;;;10.90;9.90;;;;;;;;;;5091994;28;20435;-75
2021/09/26 09:56:11;;;;;;;11.60;10.50;;;;;;;;;;5083955;28;20527;-74
2021/09/26 09:58:39;;;;;;;10.77;9.67;;;;;;;;;;5093312;28;20448;-75
2021/09/26 10:01:08;;;;;;;13.00;10.77;;;;;;;;;;5094003;28;20528;-75
2021/09/26 10:03:37;;;;;;;11.50;10.20;;;;;;;;;;5094062;28;20475;-74
2021/09/26 10:06:18;;;;;;;11.00;9.87;;;;;;;;;;5094050;28;20445;-75
2021/09/26 10:08:46;;;;;;;10.90;9.80;;;;;;;;;;5093715;28;20428;-73
2021/09/26 10:11:13;;;;;;;12.13;9.30;;;;;;;;;;5092200;28;20538;-74
2021/09/26 10:13:40;;;;;;;11.57;10.47;;;;;;;;;;5093090;28;20435;-77
2021/09/26 10:16:09;;;;;;;11.30;9.80;;;;;;;;;;5093884;28;20856;-77
2021/09/26 10:18:38;;;;;;;12.80;10.60;;;;;;;;;;5094030;28;20522;-76
2021/09/26 10:21:06;;;;;;;11.60;10.40;;;;;;;;;;5093488;28;20439;-76
2021/09/26 10:23:34;;;;;;;11.10;10.10;;;;;;;;;;5093463;28;20527;-74
2021/09/26 10:26:02;;;;;;;12.10;10.83;;;;;;;;;;5093384;28;21029;-74
2021/09/26 10:28:30;;;;;;;12.20;11.00;;;;;;;;;;5093238;28;20568;-76
2021/09/26 10:30:58;;;;;;;14.70;9.90;;;;;;;;;;5093459;28;20432;-74
2021/09/26 10:33:27;;;;;;;11.30;10.10;;;;;;;;;;5093921;28;20568;-75
2021/09/26 10:35:57;;;;;;;11.40;9.77;;;;;;;;;;5093617;28;20471;-75
2021/09/26 10:38:24;;;;;;;10.70;9.70;;;;;;;;;;5093889;28;20427;-74
2021/09/26 10:40:52;;;;;;;16.10;9.90;;;;;;;;;;5093995;28;20461;-75
2021/09/26 10:43:20;;;;;;;14.47;10.03;;;;;;;;;;5073595;28;20476;-75
2021/09/26 10:45:48;;;;;;;14.33;10.00;;;;;;;;;;5073379;28;20596;-75
2021/09/26 10:48:15;;;;;;;11.23;10.03;;;;;;;;;;5073412;28;20530;-74
2021/09/26 10:50:44;;;;;;;11.57;9.30;;;;;;;;;;5073240;28;20471;-76
2021/09/26 10:53:13;;;;;;;9.97;9.07;;;;;;;;;;5072927;28;20448;-75
2021/09/26 10:55:40;;;;;;;10.13;9.23;;;;;;;;;;5072856;28;20468;-74
2021/09/26 10:58:18;;;;;;;9.80;8.83;;;;;;;;;;5073269;28;20535;-75
2021/09/26 11:00:51;;;;;;;9.57;8.60;;;;;;;;;;5072933;28;20531;-75
2021/09/26 11:03:22;;;;;;;10.03;9.00;;;;;;;;;;5075303;28;20541;-74
2021/09/26 11:05:50;;;;;;;10.53;9.40;;;;;;;;;;5077239;28;20436;-75
2021/09/26 11:08:39;;;;;;;12.50;9.90;;;;;;;;;;5076863;28;20448;-74
2021/09/26 11:11:06;;;;;;;10.87;9.77;;;;;;;;;;5076683;28;20449;-75
2021/09/26 11:13:34;;;;;;;9.20;8.40;;;;;;;;;;5077352;28;20440;-75
2021/09/26 11:16:11;;;;;;;10.83;9.10;;;;;;;;;;5076520;28;20440;-74
2021/09/26 11:18:46;;;;;;;11.30;9.40;;;;;;;;;;5077865;28;20439;-75
2021/09/26 11:21:28;;;;;;;8.77;7.90;;;;;;;;;;5077370;28;20436;-74
2021/09/26 11:24:01;;;;;;;10.47;9.37;;;;;;;;;;5075906;28;20961;-75
2021/09/26 11:26:28;;;;;;;9.73;8.60;;;;;;;;;;5076578;28;20438;-75
2021/09/26 11:29:04;;;;;;;10.30;9.10;;;;;;;;;;5076381;28;20464;-75
2021/09/26 11:31:49;;;;;;;9.47;8.50;;;;;;;;;;5077058;28;20586;-75
2021/09/26 11:34:35;;;;;;;9.70;8.90;;;;;;;;;;5077196;28;20425;-75
2021/09/26 11:37:02;;;;;;;9.60;8.60;;;;;;;;;;5076276;28;20520;-79
2021/09/26 11:39:31;;;;;;;10.03;9.17;;;;;;;;;;5076346;28;20450;-75
2021/09/26 11:41:59;;;;;;;9.93;9.07;;;;;;;;;;5076350;28;20512;-74
2021/09/26 11:44:27;;;;;;;10.33;9.20;;;;;;;;;;5076459;28;20445;-74
2021/09/26 11:46:55;;;;;;;9.80;8.70;;;;;;;;;;5076465;28;20518;-74
2021/09/26 11:49:23;;;;;;;9.60;8.57;;;;;;;;;;5076388;28;20519;-74
2021/09/26 11:51:54;;;;;;;8.80;8.00;;;;;;;;;;5075967;28;20447;-74
2021/09/26 11:54:21;;;;;;;9.00;8.30;;;;;;;;;;5076674;28;20450;-74
2021/09/26 11:56:50;;;;;;;10.83;9.93;;;;;;;;;;5075893;28;20445;-74
2021/09/26 11:59:18;;;;;;;8.87;7.97;;;;;;;;;;5075875;28;20902;-74
2021/09/26 12:01:46;;;;;;;9.60;8.77;;;;;;;;;;5076029;28;20446;-74
2021/09/26 12:04:15;;;;;;;9.90;8.67;;;;;;;;;;5075685;28;20491;-74
2021/09/26 12:06:44;;;;;;;8.90;8.10;;;;;;;;;;5075708;28;20440;-74
2021/09/26 12:09:11;;;;;;;10.13;8.03;;;;;;;;;;5075681;28;21047;-74
2021/09/26 12:11:52;;;;;;;12.60;7.20;;;;;;;;;;5075892;28;20447;-74
2021/09/26 12:14:23;;;;;;;8.03;7.30;;;;;;;;;;5075099;28;20467;-73
2021/09/26 12:16:50;;;;;;;9.47;8.57;;;;;;;;;;5075541;28;20975;-73
2021/09/26 12:19:17;;;;;;;8.80;7.90;;;;;;;;;;5075540;28;20494;-73
2021/09/26 12:21:44;;;;;;;9.10;7.23;;;;;;;;;;5075738;28;20469;-74
2021/09/26 12:24:16;;;;;;;8.00;7.30;;;;;;;;;;5075710;28;20446;-74
2021/09/26 12:26:44;;;;;;;8.43;7.20;;;;;;;;;;5075348;28;20428;-74
2021/09/26 12:29:13;;;;;;;7.87;7.27;;;;;;;;;;5075280;28;20572;-74
2021/09/26 12:31:50;;;;;;;9.53;7.27;;;;;;;;;;5075441;28;20443;-74
2021/09/26 12:34:23;;;;;;;6.70;6.10;;;;;;;;;;5076014;28;20503;-74
2021/09/26 12:36:50;;;;;;;7.17;6.50;;;;;;;;;;5075445;28;20522;-74
2021/09/26 12:39:21;;;;;;;7.57;6.50;;;;;;;;;;5075038;28;20474;-73
2021/09/26 12:41:51;;;;;;;8.60;7.60;;;;;;;;;;5074987;28;20431;-74
2021/09/26 12:44:27;;;;;;;9.30;7.70;;;;;;;;;;5075948;28;20460;-74
2021/09/26 12:46:54;;;;;;;7.63;6.83;;;;;;;;;;5075130;28;20434;-74
2021/09/26 12:49:22;;;;;;;8.73;5.90;;;;;;;;;;5074761;28;20971;-74
2021/09/26 12:51:51;;;;;;;6.97;6.27;;;;;;;;;;5075556;28;20530;-76
2021/09/26 12:54:26;;;;;;;7.27;6.63;;;;;;;;;;5074810;28;20479;-73
2021/09/26 12:56:54;;;;;;;6.90;6.20;;;;;;;;;;5075307;28;20429;-74
2021/09/26 12:59:26;;;;;;;6.07;5.60;;;;;;;;;;5074996;28;20916;-77
2021/09/26 13:02:01;;;;;;;6.70;5.73;;;;;;;;;;5074963;28;20422;-77
2021/09/26 13:04:28;;;;;;;6.20;5.70;;;;;;;;;;5074896;28;20444;-78
2021/09/26 13:06:56;;;;;;;9.83;6.27;;;;;;;;;;5075637;28;20470;-78
2021/09/26 13:09:27;;;;;;;8.73;5.80;;;;;;;;;;5074719;28;20530;-77
2021/09/26 13:11:54;;;;;;;5.83;5.23;;;;;;;;;;5081410;28;20546;-77
2021/09/26 13:14:30;;;;;;;7.47;5.50;;;;;;;;;;5094557;28;20531;-77
2021/09/26 13:17:13;;;;;;;5.60;5.10;;;;;;;;;;5095378;28;20459;-77
2021/09/26 13:19:46;;;;;;;7.30;5.40;;;;;;;;;;5094746;28;20868;-76
2021/09/26 13:22:26;;;;;;;7.07;6.00;;;;;;;;;;5095091;28;20555;-76
2021/09/26 13:25:01;;;;;;;6.30;5.73;;;;;;;;;;5094780;28;20515;-76
2021/09/26 13:27:31;;;;;;;5.17;4.70;;;;;;;;;;5094740;28;20906;-76
2021/09/26 13:29:59;;;;;;;8.13;4.93;;;;;;;;;;5094561;28;20512;-77
2021/09/26 13:32:27;;;;;;;5.73;5.10;;;;;;;;;;5094543;28;20437;-78
2021/09/26 13:35:03;;;;;;;5.13;4.63;;;;;;;;;;5094177;28;20438;-77
2021/09/26 13:37:30;;;;;;;5.63;5.00;;;;;;;;;;5094442;28;20424;-79
2021/09/26 13:40:00;;;;;;;6.37;5.10;;;;;;;;;;5094467;28;20439;-77
2021/09/26 13:42:29;;;;;;;5.63;5.00;;;;;;;;;;5079205;28;20473;-76
2021/09/26 13:44:58;;;;;;;5.07;4.57;;;;;;;;;;5073926;28;20532;-76
2021/09/26 13:47:25;;;;;;;4.80;4.40;;;;;;;;;;5073724;28;20530;-78
2021/09/26 13:49:54;;;;;;;4.90;4.40;;;;;;;;;;5073603;28;20533;-78
2021/09/26 13:52:21;;;;;;;6.10;4.80;;;;;;;;;;5073817;28;20438;-78
2021/09/26 13:54:49;;;;;;;10.53;5.37;;;;;;;;;;5073531;28;20935;-77
2021/09/26 13:57:18;;;;;;;5.57;5.07;;;;;;;;;;5073854;28;20537;-77
2021/09/26 13:59:45;;;;;;;5.77;4.30;;;;;;;;;;5073593;28;20459;-77
2021/09/26 14:02:12;;;;;;;5.30;4.80;;;;;;;;;;5073407;28;20442;-77
2021/09/26 14:04:40;;;;;;;4.67;4.10;;;;;;;;;;5073409;28;20439;-76
2021/09/26 14:07:08;;;;;;;4.83;4.43;;;;;;;;;;5073377;28;20440;-78
2021/09/26 14:09:35;;;;;;;4.67;3.93;;;;;;;;;;5073565;28;20442;-78
2021/09/26 14:12:03;;;;;;;4.77;4.43;;;;;;;;;;5073241;28;20447;-78
2021/09/26 14:14:31;;;;;;;6.57;5.70;;;;;;;;;;5073736;28;20449;-78
2021/09/26 14:16:59;;;;;;;6.07;5.50;;;;;;;;;;5073690;28;20553;-77
2021/09/26 14:19:26;;;;;;;7.30;5.27;;;;;;;;;;5073476;28;20441;-77
2021/09/26 14:21:53;;;;;;;9.23;4.90;;;;;;;;;;5073459;28;20442;-77
2021/09/26 14:24:20;;;;;;;7.93;5.03;;;;;;;;;;5073521;28;20573;-77
2021/09/26 14:26:47;;;;;;;7.30;4.60;;;;;;;;;;5073610;28;20463;-77
2021/09/26 14:29:15;;;;;;;6.00;4.90;;;;;;;;;;5073777;28;20507;-78
2021/09/26 14:31:43;;;;;;;9.70;5.40;;;;;;;;;;5073470;28;20462;-77
2021/09/26 14:34:11;;;;;;;5.50;5.00;;;;;;;;;;5073028;28;20445;-77